createdAt,value
2023-04-15T00:02:21.105Z,99446.69
2023-04-15T00:05:22.801Z,99442.69
2023-04-15T00:08:24.518Z,99442.38
2023-04-15T00:11:26.179Z,99441.28
2023-04-15T00:14:28.203Z,99432.81
2023-04-15T00:17:30.246Z,99434.47
2023-04-15T00:20:32.376Z,99437.63
2023-04-15T00:23:33.986Z,99439.38
2023-04-15T00:26:35.820Z,99439.88
2023-04-15T00:29:37.468Z,99434.19
2023-04-15T00:32:39.110Z,99433.59
2023-04-15T00:35:40.775Z,99434.00
2023-04-15T00:38:42.631Z,99431.91
2023-04-15T00:41:45.652Z,99430.91
2023-04-15T00:44:47.402Z,99426.44
2023-04-15T00:47:49.755Z,99428.22
2023-04-15T00:50:52.010Z,99421.66
2023-04-15T00:53:53.639Z,99419.00
2023-04-15T00:56:55.273Z,99429.41
2023-04-15T00:59:58.111Z,99420.66
2023-04-15T01:03:00.037Z,99417.41
2023-04-15T01:06:03.895Z,99420.94
2023-04-15T01:09:06.354Z,99422.06
2023-04-15T01:12:12.114Z,99428.09
2023-04-15T01:15:13.759Z,99424.25
2023-04-15T01:18:15.950Z,99418.41
2023-04-15T01:21:18.235Z,99421.09
2023-04-15T01:24:20.221Z,99424.56
2023-04-15T01:27:22.610Z,99434.91
2023-04-15T01:30:24.559Z,99431.00
2023-04-15T01:33:26.312Z,99426.22
2023-04-15T01:36:28.305Z,99433.53
2023-04-15T01:39:29.917Z,99437.31
2023-04-15T01:42:31.561Z,99433.22
2023-04-15T01:45:33.276Z,99436.41
2023-04-15T01:48:34.902Z,99431.81
2023-04-15T01:51:36.522Z,99433.41
2023-04-15T01:54:38.136Z,99427.47
2023-04-15T01:57:40.122Z,99433.41
2023-04-15T02:00:41.822Z,99432.50
2023-04-15T02:03:43.567Z,99434.09
2023-04-15T02:06:46.156Z,99432.41
2023-04-15T02:09:47.907Z,99439.84
2023-04-15T02:12:49.560Z,99434.69
2023-04-15T02:15:52.650Z,99432.78
2023-04-15T02:18:54.269Z,99430.50
2023-04-15T02:21:55.932Z,99432.41
2023-04-15T02:24:57.630Z,99427.78
2023-04-15T02:27:59.292Z,99429.22
2023-04-15T02:31:02.311Z,99435.38
2023-04-15T02:34:04.747Z,99430.34
2023-04-15T02:37:06.791Z,99429.78
2023-04-15T02:40:12.172Z,99437.37
2023-04-15T02:43:13.820Z,99428.19
2023-04-15T02:46:15.445Z,99429.25
2023-04-15T02:49:17.194Z,99427.91
2023-04-15T02:52:18.871Z,99431.97
2023-04-15T02:55:20.636Z,99433.12
2023-04-15T02:58:22.724Z,99434.78
2023-04-15T03:01:24.416Z,99429.50
2023-04-15T03:04:26.180Z,99437.22
2023-04-15T03:07:27.775Z,99433.97
2023-04-15T03:10:29.461Z,99432.13
2023-04-15T03:13:31.351Z,99435.91
2023-04-15T03:16:33.237Z,99441.25
2023-04-15T03:19:34.867Z,99439.91
2023-04-15T03:22:36.532Z,99439.78
2023-04-15T03:25:38.182Z,99436.28
2023-04-15T03:28:39.750Z,99432.50
2023-04-15T03:31:41.836Z,99443.94
2023-04-15T03:34:43.701Z,99438.50
2023-04-15T03:37:45.348Z,99438.16
2023-04-15T03:40:47.207Z,99436.41
2023-04-15T03:43:48.800Z,99435.38
2023-04-15T03:46:50.967Z,99437.28
2023-04-15T03:49:53.828Z,99431.31
2023-04-15T03:52:55.652Z,99432.31
2023-04-15T03:55:57.365Z,99434.09
2023-04-15T03:58:59.185Z,99431.38
2023-04-15T04:02:01.007Z,99429.69
2023-04-15T04:05:02.784Z,99434.75
2023-04-15T04:08:04.901Z,99441.53
2023-04-15T04:11:06.706Z,99442.97
2023-04-15T04:14:08.372Z,99464.16
2023-04-15T04:17:10.072Z,99461.47
2023-04-15T04:20:12.463Z,99457.88
2023-04-15T04:23:14.209Z,99464.22
2023-04-15T04:26:16.318Z,99457.12
2023-04-15T04:29:17.983Z,99452.41
2023-04-15T04:32:19.642Z,99461.41
2023-04-15T04:35:22.019Z,99452.19
2023-04-15T04:38:23.701Z,99460.53
2023-04-15T04:41:25.550Z,99456.50
2023-04-15T04:44:27.461Z,99447.34
2023-04-15T04:47:30.210Z,99453.53
2023-04-15T04:50:32.363Z,99463.19
2023-04-15T04:53:34.167Z,99463.09
2023-04-15T04:56:35.774Z,99474.81
2023-04-15T04:59:38.111Z,99476.91
2023-04-15T05:02:39.983Z,99480.97
2023-04-15T05:05:41.757Z,99476.09
2023-04-15T05:08:43.422Z,99468.19
2023-04-15T05:11:45.049Z,99475.66
2023-04-15T05:14:46.901Z,99474.19
2023-04-15T05:17:48.545Z,99471.75
2023-04-15T05:20:50.365Z,99483.78
2023-04-15T05:23:52.309Z,99483.06
2023-04-15T05:26:54.097Z,99482.44
2023-04-15T05:29:56.713Z,99482.19
2023-04-15T05:32:58.466Z,99480.63
2023-04-15T05:36:00.132Z,99482.06
2023-04-15T05:39:02.239Z,99481.69
2023-04-15T05:42:06.018Z,99478.53
2023-04-15T05:45:09.373Z,99474.72
2023-04-15T05:48:11.032Z,99463.84
2023-04-15T05:51:12.714Z,99471.97
2023-04-15T05:54:14.347Z,99467.59
2023-04-15T05:57:16.209Z,99461.63
2023-04-15T06:00:18.068Z,99464.28
2023-04-15T06:03:19.907Z,99464.28
2023-04-15T06:06:21.756Z,99462.91
2023-04-15T06:09:23.431Z,99465.94
2023-04-15T06:12:25.085Z,99471.09
2023-04-15T06:15:26.719Z,99468.84
2023-04-15T06:18:28.361Z,99471.66
2023-04-15T06:21:30.235Z,99469.00
2023-04-15T06:24:33.189Z,99473.66
2023-04-15T06:27:34.889Z,99473.78
2023-04-15T06:30:36.945Z,99482.63
2023-04-15T06:33:39.680Z,99480.75
2023-04-15T06:36:41.299Z,99473.06
2023-04-15T06:39:43.614Z,99477.25
2023-04-15T06:42:45.667Z,99475.44
2023-04-15T06:45:47.406Z,99468.37
2023-04-15T06:48:49.061Z,99472.56
2023-04-15T06:51:51.641Z,99477.69
2023-04-15T06:54:53.278Z,99482.19
2023-04-15T06:57:54.997Z,99480.81
2023-04-15T07:00:56.842Z,99487.19
2023-04-15T07:03:58.556Z,99481.13
2023-04-15T07:07:02.602Z,99490.97
2023-04-15T07:10:05.486Z,99496.53
2023-04-15T07:13:08.915Z,99503.16
2023-04-15T07:16:10.747Z,99508.34
2023-04-15T07:19:12.372Z,99515.03
2023-04-15T07:22:14.017Z,99514.75
2023-04-15T07:25:15.725Z,99512.13
2023-04-15T07:28:17.415Z,99511.09
2023-04-15T07:31:19.346Z,99508.94
2023-04-15T07:34:21.129Z,99520.69
2023-04-15T07:37:22.804Z,99527.78
2023-04-15T07:40:24.487Z,99525.75
2023-04-15T07:43:26.133Z,99540.81
2023-04-15T07:46:28.530Z,99533.44
2023-04-15T07:49:30.285Z,99537.38
2023-04-15T07:52:32.482Z,99539.38
2023-04-15T07:55:34.144Z,99546.81
2023-04-15T07:58:36.111Z,99542.84
2023-04-15T08:01:37.861Z,99541.72
2023-04-15T08:04:39.601Z,99532.38
2023-04-15T08:07:41.801Z,99535.81
2023-04-15T08:10:43.524Z,99539.66
2023-04-15T08:13:45.453Z,99544.84
2023-04-15T08:16:47.078Z,99543.19
2023-04-15T08:19:48.714Z,99531.78
2023-04-15T08:22:52.282Z,99536.72
2023-04-15T08:25:53.916Z,99537.13
2023-04-15T08:28:55.674Z,99550.47
2023-04-15T08:31:57.440Z,99533.09
2023-04-15T08:34:59.276Z,99539.34
2023-04-15T08:38:01.028Z,99540.19
2023-04-15T08:41:31.258Z,99552.41
2023-04-15T08:44:39.055Z,99547.50
2023-04-15T08:47:41.168Z,99549.94
2023-04-15T08:50:51.652Z,99545.63
2023-04-15T08:54:02.677Z,99551.87
2023-04-15T08:57:04.626Z,99551.91
2023-04-15T09:00:07.152Z,99553.38
2023-04-15T09:03:09.785Z,99555.44
2023-04-15T09:06:11.892Z,99542.81
2023-04-15T09:09:18.603Z,99554.62
2023-04-15T09:12:20.339Z,99546.22
2023-04-15T09:15:22.791Z,99551.34
2023-04-15T09:18:32.036Z,99549.22
2023-04-15T09:21:34.667Z,99559.66
2023-04-15T09:24:39.029Z,99553.78
2023-04-15T09:27:51.048Z,99562.94
2023-04-15T09:30:57.520Z,99553.00
2023-04-15T09:33:59.663Z,99563.09
2023-04-15T09:37:01.611Z,99565.97
2023-04-15T09:40:04.062Z,99566.06
2023-04-15T09:43:06.815Z,99563.44
2023-04-15T09:46:08.560Z,99560.47
2023-04-15T09:49:11.350Z,99567.69
2023-04-15T09:52:14.398Z,99559.63
2023-04-15T09:55:18.580Z,99566.72
2023-04-15T09:58:22.170Z,99554.62
2023-04-15T10:01:23.957Z,99557.28
2023-04-15T10:04:28.407Z,99561.69
2023-04-15T10:07:30.911Z,99557.88
2023-04-15T10:10:34.552Z,99558.78
2023-04-15T10:13:37.447Z,99560.28
2023-04-15T10:16:43.602Z,99556.41
2023-04-15T10:19:46.793Z,99560.88
2023-04-15T10:22:48.871Z,99553.78
2023-04-15T10:25:54.442Z,99550.75
2023-04-15T10:28:56.934Z,99550.00
2023-04-15T10:32:00.011Z,99554.00
2023-04-15T10:35:02.539Z,99558.16
2023-04-15T10:38:47.290Z,99560.38
2023-04-15T10:42:07.172Z,99562.06
2023-04-15T10:45:17.822Z,99563.03
2023-04-15T10:48:19.618Z,99557.13
2023-04-15T10:51:30.505Z,99548.19
2023-04-15T10:54:33.715Z,99547.66
2023-04-15T10:57:39.332Z,99548.50
2023-04-15T11:00:41.259Z,99559.13
2023-04-15T11:03:43.598Z,99551.13
2023-04-15T11:06:48.343Z,99556.91
2023-04-15T11:09:49.965Z,99571.41
2023-04-15T11:12:53.720Z,99587.31
2023-04-15T11:15:58.945Z,99591.34
2023-04-15T11:19:01.799Z,99594.56
2023-04-15T11:22:08.381Z,99583.16
2023-04-15T11:25:10.028Z,99584.22
2023-04-15T11:28:13.188Z,99581.34
2023-04-15T11:31:33.600Z,99578.31
2023-04-15T11:34:36.273Z,99582.22
2023-04-15T11:37:38.122Z,99578.28
2023-04-15T11:40:41.006Z,99601.94
2023-04-15T11:43:42.714Z,99612.47
2023-04-15T11:46:45.618Z,99626.72
2023-04-15T11:49:47.322Z,99633.63
2023-04-15T11:52:55.079Z,99635.63
2023-04-15T11:55:56.966Z,99631.47
2023-04-15T11:58:59.857Z,99619.13
2023-04-15T12:02:13.001Z,99622.19
2023-04-15T12:05:14.759Z,99617.25
2023-04-15T12:08:16.411Z,99622.69
2023-04-15T12:11:19.199Z,99613.06
2023-04-15T12:14:33.698Z,99609.66
2023-04-15T12:17:51.902Z,99602.69
2023-04-15T12:20:57.394Z,99608.38
2023-04-15T12:24:04.336Z,99613.56
2023-04-15T12:27:11.944Z,99609.94
2023-04-15T12:30:13.779Z,99612.72
2023-04-15T12:33:15.482Z,99619.34
2023-04-15T12:36:17.394Z,99629.94
2023-04-15T12:39:22.698Z,99622.81
2023-04-15T12:42:24.361Z,99625.66
2023-04-15T12:45:26.874Z,99626.50
2023-04-15T12:48:29.578Z,99636.22
2023-04-15T12:51:31.965Z,99629.81
2023-04-15T12:54:34.665Z,99629.09
2023-04-15T12:57:36.402Z,99636.63
2023-04-15T13:00:38.637Z,99640.06
2023-04-15T13:03:40.552Z,99647.53
2023-04-15T13:06:43.264Z,99642.59
2023-04-15T13:09:45.017Z,99647.09
2023-04-15T13:12:48.045Z,99651.37
2023-04-15T13:15:49.886Z,99656.38
2023-04-15T13:18:51.812Z,99656.91
2023-04-15T13:21:53.486Z,99657.59
2023-04-15T13:24:55.182Z,99666.00
2023-04-15T13:27:57.712Z,99662.56
2023-04-15T13:31:00.436Z,99665.09
2023-04-15T13:34:02.142Z,99665.78
2023-04-15T13:37:10.034Z,99668.34
2023-04-15T13:40:11.988Z,99664.69
2023-04-15T13:43:13.668Z,99661.09
2023-04-15T13:46:15.590Z,99668.53
2023-04-15T13:49:17.315Z,99677.09
2023-04-15T13:52:19.216Z,99667.41
2023-04-15T13:55:23.749Z,99674.84
2023-04-15T13:58:27.261Z,99682.50
2023-04-15T14:01:29.738Z,99682.22
2023-04-15T14:04:32.353Z,99685.62
2023-04-15T14:07:34.347Z,99682.16
2023-04-15T14:10:36.048Z,99687.47
2023-04-15T14:13:37.943Z,99694.59
2023-04-15T14:16:40.169Z,99699.22
2023-04-15T14:19:41.963Z,99699.22
2023-04-15T14:22:43.606Z,99706.47
2023-04-15T14:25:47.927Z,99703.53
2023-04-15T14:28:50.378Z,99697.41
2023-04-15T14:32:07.195Z,99697.72
2023-04-15T14:35:14.247Z,99695.22
2023-04-15T14:38:16.086Z,99691.47
2023-04-15T14:41:17.771Z,99697.91
2023-04-15T14:44:19.435Z,99698.81
2023-04-15T14:47:21.101Z,99705.06
2023-04-15T14:50:23.163Z,99701.16
2023-04-15T14:53:24.838Z,99710.00
2023-04-15T14:56:27.334Z,99710.59
2023-04-15T14:59:29.110Z,99709.34
2023-04-15T15:02:39.042Z,99706.09
2023-04-15T15:05:42.133Z,99711.28
2023-04-15T15:08:44.125Z,99711.97
2023-04-15T15:11:45.788Z,99716.28
2023-04-15T15:14:47.834Z,99716.75
2023-04-15T15:17:51.038Z,99718.91
2023-04-15T15:20:52.723Z,99724.69
2023-04-15T15:23:54.433Z,99722.88
2023-04-15T15:26:57.301Z,99724.19
2023-04-15T15:29:58.961Z,99724.47
2023-04-15T15:33:00.777Z,99729.22
2023-04-15T15:36:03.754Z,99728.66
2023-04-15T15:39:05.940Z,99729.47
2023-04-15T15:42:08.061Z,99731.28
2023-04-15T15:45:10.287Z,99730.41
2023-04-15T15:48:12.115Z,99733.44
2023-04-15T15:51:13.995Z,99734.84
2023-04-15T15:54:15.699Z,99730.53
2023-04-15T15:57:17.502Z,99733.28
2023-04-15T16:00:19.217Z,99728.50
2023-04-15T16:03:21.076Z,99736.28
2023-04-15T16:06:22.926Z,99737.19
2023-04-15T16:09:24.606Z,99725.94
2023-04-15T16:12:27.369Z,99728.50
2023-04-15T16:15:29.298Z,99725.34
2023-04-15T16:18:32.043Z,99728.56
2023-04-15T16:21:35.518Z,99720.13
2023-04-15T16:24:37.373Z,99721.78
2023-04-15T16:30:44.049Z,99745.12
2023-04-15T16:33:46.351Z,99744.00
2023-04-15T16:36:48.303Z,99752.72
2023-04-15T16:39:50.092Z,99763.25
2023-04-15T16:42:51.918Z,99761.38
2023-04-15T16:45:53.903Z,99758.13
2023-04-15T16:48:57.011Z,99766.59
2023-04-15T16:51:58.868Z,99769.19
2023-04-15T16:55:00.623Z,99772.69
2023-04-15T16:58:03.942Z,99779.25
2023-04-15T17:01:06.820Z,99780.47
2023-04-15T17:04:09.143Z,99793.41
2023-04-15T17:07:11.831Z,99786.84
2023-04-15T17:10:16.325Z,99789.44
2023-04-15T17:13:17.999Z,99800.38
2023-04-15T17:16:20.015Z,99805.47
2023-04-15T17:19:22.257Z,99809.38
2023-04-15T17:22:23.965Z,99805.22
2023-04-15T17:25:25.704Z,99808.56
2023-04-15T17:28:27.384Z,99816.84
2023-04-15T17:31:30.544Z,99827.69
2023-04-15T17:34:50.660Z,99828.94
2023-04-15T17:37:52.860Z,99831.66
2023-04-15T17:40:55.180Z,99834.13
2023-04-15T17:43:57.162Z,99837.12
2023-04-15T17:46:59.395Z,99841.00
2023-04-15T17:50:01.595Z,99851.25
2023-04-15T17:53:04.156Z,99845.16
2023-04-15T17:56:06.088Z,99847.13
2023-04-15T17:59:09.751Z,99850.69
2023-04-15T18:02:15.555Z,99855.13
2023-04-15T18:05:19.857Z,99860.59
2023-04-15T18:08:21.868Z,99869.50
2023-04-15T18:11:24.111Z,99872.59
2023-04-15T18:14:34.106Z,99884.75
2023-04-15T18:17:37.123Z,99880.63
2023-04-15T18:20:39.998Z,99872.81
2023-04-15T18:23:42.773Z,99870.69
2023-04-15T18:26:47.558Z,99867.19
2023-04-15T18:29:52.196Z,99871.56
2023-04-15T18:32:54.081Z,99878.63
2023-04-15T18:35:57.821Z,99888.00
2023-04-15T18:39:00.279Z,99902.25
2023-04-15T18:42:02.702Z,99906.09
2023-04-15T18:45:05.474Z,99923.03
2023-04-15T18:48:07.479Z,99918.94
2023-04-15T18:51:09.603Z,99928.72
2023-04-15T18:54:13.896Z,99931.28
2023-04-15T18:57:20.421Z,99935.59
2023-04-15T19:00:33.299Z,99943.94
2023-04-15T19:03:35.255Z,99939.06
2023-04-15T19:06:38.829Z,99933.22
2023-04-15T19:09:41.621Z,99943.31
2023-04-15T19:12:43.935Z,99948.50
2023-04-15T19:15:46.227Z,99957.53
2023-04-15T19:18:48.591Z,99962.75
2023-04-15T19:21:51.419Z,99966.84
2023-04-15T19:24:53.888Z,99966.84
2023-04-15T19:27:57.920Z,99967.62
2023-04-15T19:34:18.069Z,99966.06
2023-04-15T19:37:20.546Z,99966.34
2023-04-15T19:40:23.131Z,99970.03
2023-04-15T19:43:25.657Z,99964.00
2023-04-15T19:46:30.323Z,99969.06
2023-04-15T19:49:32.306Z,99982.06
2023-04-15T19:52:35.487Z,99979.31
2023-04-15T19:55:38.204Z,99980.31
2023-04-15T19:58:39.913Z,99982.34
2023-04-15T20:01:44.988Z,99986.47
2023-04-15T20:04:47.898Z,99981.69
2023-04-15T20:07:52.309Z,99991.94
2023-04-15T20:10:55.256Z,99993.69
2023-04-15T20:13:57.878Z,99997.56
2023-04-15T20:17:01.277Z,99996.84
2023-04-15T20:20:05.789Z,99997.66
2023-04-15T20:23:07.732Z,100010.25
2023-04-15T20:26:09.877Z,100008.22
2023-04-15T20:29:13.893Z,100010.94
2023-04-15T20:32:15.888Z,100015.12
2023-04-15T20:35:19.844Z,100013.72
2023-04-15T20:38:22.476Z,100010.16
2023-04-15T20:41:24.724Z,100015.00
2023-04-15T20:44:26.721Z,100018.38
2023-04-15T20:47:28.915Z,100023.19
2023-04-15T20:50:31.489Z,100029.63
2023-04-15T20:53:34.607Z,100034.81
2023-04-15T20:56:36.721Z,100030.00
2023-04-15T20:59:38.479Z,100038.13
2023-04-15T21:02:40.980Z,100033.44
2023-04-15T21:05:43.725Z,100030.06
2023-04-15T21:08:45.778Z,100031.94
2023-04-15T21:12:00.388Z,100037.78
2023-04-15T21:15:02.531Z,100028.28
2023-04-15T21:18:04.392Z,100028.13
2023-04-15T21:21:06.153Z,100031.53
2023-04-15T21:24:07.957Z,100036.94
2023-04-15T21:27:09.814Z,100034.44
2023-04-15T21:30:12.338Z,100039.44
2023-04-15T21:33:13.990Z,100043.75
2023-04-15T21:36:15.645Z,100043.69
2023-04-15T21:39:17.394Z,100049.59
2023-04-15T21:42:19.175Z,100054.00
2023-04-15T21:45:20.838Z,100059.38
2023-04-15T21:48:22.618Z,100063.72
2023-04-15T21:51:24.382Z,100071.06
2023-04-15T21:54:26.190Z,100063.53
2023-04-15T21:57:27.872Z,100069.44
2023-04-15T22:00:29.734Z,100075.06
2023-04-15T22:03:34.293Z,100077.44
2023-04-15T22:06:36.457Z,100077.72
2023-04-15T22:09:38.079Z,100073.84
2023-04-15T22:12:42.829Z,100074.41
2023-04-15T22:15:44.533Z,100077.84
2023-04-15T22:18:46.184Z,100086.97
2023-04-15T22:21:47.825Z,100084.97
2023-04-15T22:24:49.507Z,100084.97
2023-04-15T22:27:51.208Z,100083.38
2023-04-15T22:30:54.703Z,100079.84
2023-04-15T22:33:56.402Z,100093.75
2023-04-15T22:36:58.097Z,100095.50
2023-04-15T22:39:59.877Z,100106.56
2023-04-15T22:43:01.617Z,100102.69
2023-04-15T22:46:03.283Z,100104.97
2023-04-15T22:49:08.394Z,100113.47
2023-04-15T22:52:14.521Z,100113.94
2023-04-15T22:55:22.024Z,100114.00
2023-04-15T22:58:23.791Z,100117.75
2023-04-15T23:01:25.553Z,100115.25
2023-04-15T23:04:28.295Z,100116.41
2023-04-15T23:07:30.193Z,100123.13
2023-04-15T23:10:31.867Z,100112.25
2023-04-15T23:13:35.694Z,100121.22
2023-04-15T23:16:37.428Z,100119.66
2023-04-15T23:19:39.374Z,100119.75
2023-04-15T23:22:42.083Z,100114.87
2023-04-15T23:25:43.772Z,100107.25
2023-04-15T23:28:45.398Z,100109.78
2023-04-15T23:31:47.246Z,100102.59
2023-04-15T23:34:48.903Z,100111.75
2023-04-15T23:37:50.858Z,100117.81
2023-04-15T23:40:52.673Z,100116.84
2023-04-15T23:43:54.334Z,100112.13
2023-04-15T23:46:56.050Z,100129.16
2023-04-15T23:49:57.887Z,100119.63
2023-04-15T23:52:59.525Z,100109.62
2023-04-15T23:56:01.498Z,100115.03
2023-04-15T23:59:03.122Z,100119.50
